createdAt,value
2023-05-05T00:00:59.573Z,2.099999905
2023-05-05T00:02:01.180Z,2.200000048
2023-05-05T00:03:01.793Z,2.200000048
2023-05-05T00:04:02.865Z,2.299999952
2023-05-05T00:05:04.353Z,2.400000095
2023-05-05T00:06:05.814Z,2.5
2023-05-05T00:07:07.223Z,2.5
2023-05-05T00:08:08.556Z,3
2023-05-05T00:09:09.096Z,2.5
2023-05-05T00:10:10.596Z,2.599999905
2023-05-05T00:11:12.083Z,2.299999952
2023-05-05T00:12:43.564Z,2.400000095
2023-05-05T00:13:45.084Z,2.099999905
2023-05-05T00:14:46.635Z,2.099999905
2023-05-05T00:15:47.851Z,2.400000095
2023-05-05T00:16:49.480Z,2.5
2023-05-05T00:17:50.381Z,1.899999976
2023-05-05T00:18:51.797Z,2.200000048
2023-05-05T00:19:52.822Z,1.600000024
2023-05-05T00:20:54.848Z,2.099999905
2023-05-05T00:21:56.658Z,2.200000048
2023-05-05T00:22:57.579Z,1.700000048
2023-05-05T00:23:58.567Z,1.600000024
2023-05-05T00:24:59.573Z,2
2023-05-05T00:26:00.531Z,2.299999952
2023-05-05T00:27:01.029Z,2
2023-05-05T00:28:01.482Z,1.5
2023-05-05T00:29:03.609Z,2.599999905
2023-05-05T00:30:04.126Z,2
2023-05-05T00:31:05.343Z,1.899999976
2023-05-05T00:32:06.614Z,1.899999976
2023-05-05T00:33:07.090Z,1.600000024
2023-05-05T00:34:08.048Z,1.5
2023-05-05T00:35:08.581Z,2.200000048
2023-05-05T00:36:09.835Z,1.899999976
2023-05-05T00:37:11.437Z,1.5
2023-05-05T00:38:43.113Z,1.299999952
2023-05-05T00:39:43.888Z,1.799999952
2023-05-05T00:40:45.301Z,1.600000024
2023-05-05T00:41:46.348Z,1.899999976
2023-05-05T00:42:47.375Z,2.099999905
2023-05-05T00:43:48.358Z,1.799999952
2023-05-05T00:44:49.829Z,1.700000048
2023-05-05T00:45:51.315Z,2.099999905
2023-05-05T00:46:52.672Z,1.899999976
2023-05-05T00:47:53.234Z,1.799999952
2023-05-05T00:48:54.369Z,1.899999976
2023-05-05T00:49:55.804Z,2
2023-05-05T00:50:56.807Z,1.700000048
2023-05-05T00:51:57.452Z,1.799999952
2023-05-05T00:52:57.975Z,2
2023-05-05T00:53:58.425Z,1.799999952
2023-05-05T00:54:59.906Z,1.600000024
2023-05-05T00:56:01.294Z,1.899999976
2023-05-05T00:57:02.495Z,1.799999952
2023-05-05T00:58:03.958Z,2.099999905
2023-05-05T00:59:05.428Z,1.799999952
2023-05-05T01:00:06.870Z,1.600000024
2023-05-05T01:01:07.730Z,1.600000024
2023-05-05T01:02:08.120Z,1.600000024
2023-05-05T01:03:09.415Z,1.600000024
2023-05-05T01:04:10.323Z,1.899999976
2023-05-05T01:05:11.776Z,2.200000048
2023-05-05T01:06:43.278Z,1.399999976
2023-05-05T01:07:44.158Z,1.899999976
2023-05-05T01:08:45.439Z,1.799999952
2023-05-05T01:09:46.816Z,2.799999952
2023-05-05T01:10:47.879Z,1.700000048
2023-05-05T01:11:49.300Z,1.799999952
2023-05-05T01:12:50.632Z,1.700000048
2023-05-05T01:13:51.157Z,1.899999976
2023-05-05T01:14:52.349Z,1.5
2023-05-05T01:15:53.694Z,1.700000048
2023-05-05T01:16:55.081Z,2
2023-05-05T01:17:56.665Z,2
2023-05-05T01:18:57.318Z,1.799999952
2023-05-05T01:19:58.299Z,1.799999952
2023-05-05T01:20:59.644Z,2
2023-05-05T01:22:00.194Z,1.5
2023-05-05T01:23:01.351Z,2
2023-05-05T01:24:03.063Z,1.600000024
2023-05-05T01:25:04.582Z,1.899999976
2023-05-05T01:26:06.092Z,1.5
2023-05-05T01:27:06.557Z,1.799999952
2023-05-05T01:28:07.813Z,1.700000048
2023-05-05T01:29:08.868Z,1.700000048
2023-05-05T01:30:10.216Z,1.899999976
2023-05-05T01:31:11.162Z,1.799999952
2023-05-05T01:32:42.896Z,1.799999952
2023-05-05T01:33:43.491Z,1.899999976
2023-05-05T01:34:44.079Z,2.200000048
2023-05-05T01:35:45.359Z,1.700000048
2023-05-05T01:36:46.955Z,1.700000048
2023-05-05T01:37:48.063Z,1.799999952
2023-05-05T01:38:48.582Z,2.099999905
2023-05-05T01:39:49.831Z,2.900000095
2023-05-05T01:40:51.080Z,1.799999952
2023-05-05T01:41:51.661Z,2.400000095
2023-05-05T01:42:52.831Z,2.099999905
2023-05-05T01:43:53.889Z,2.400000095
2023-05-05T01:44:55.467Z,2.5
2023-05-05T01:45:56.858Z,2.299999952
2023-05-05T01:46:58.064Z,2.599999905
2023-05-05T01:47:58.616Z,2.400000095
2023-05-05T01:48:59.848Z,2.200000048
2023-05-05T01:50:01.105Z,2
2023-05-05T01:51:02.570Z,2.299999952
2023-05-05T01:52:03.325Z,2.099999905
2023-05-05T01:53:04.614Z,1.600000024
2023-05-05T01:54:06.077Z,2.299999952
2023-05-05T01:55:07.168Z,2.099999905
2023-05-05T01:56:08.087Z,2.099999905
2023-05-05T01:57:08.634Z,1.899999976
2023-05-05T01:58:09.885Z,2.299999952
2023-05-05T01:59:11.110Z,2.299999952
2023-05-05T02:00:42.347Z,1.799999952
2023-05-05T02:01:43.729Z,1.799999952
2023-05-05T02:02:45.200Z,2
2023-05-05T02:03:46.152Z,1.899999976
2023-05-05T02:04:47.443Z,2.400000095
2023-05-05T02:05:48.849Z,2
2023-05-05T02:06:49.984Z,2.400000095
2023-05-05T02:07:51.106Z,2.200000048
2023-05-05T02:08:52.628Z,2.299999952
2023-05-05T02:09:53.354Z,2.700000048
2023-05-05T02:10:54.872Z,2.400000095
2023-05-05T02:11:56.389Z,2.700000048
2023-05-05T02:12:57.665Z,2.799999952
2023-05-05T02:13:59.123Z,2.599999905
2023-05-05T02:14:59.555Z,3
2023-05-05T02:16:00.988Z,2.400000095
2023-05-05T02:17:02.123Z,2.599999905
2023-05-05T02:18:02.652Z,2.900000095
2023-05-05T02:19:03.935Z,2.599999905
2023-05-05T02:20:05.249Z,3.200000048
2023-05-05T02:21:06.707Z,2.900000095
2023-05-05T02:22:07.123Z,2.900000095
2023-05-05T02:23:08.396Z,3.299999952
2023-05-05T02:24:09.837Z,3.099999905
2023-05-05T02:25:11.574Z,3
2023-05-05T02:26:43.939Z,3.200000048
2023-05-05T02:27:45.102Z,3.099999905
2023-05-05T02:28:46.623Z,3
2023-05-05T02:29:47.280Z,3
2023-05-05T02:30:48.389Z,2.799999952
2023-05-05T02:31:50.080Z,2.900000095
2023-05-05T02:32:51.082Z,3.200000048
2023-05-05T02:33:51.700Z,3
2023-05-05T02:34:52.800Z,3
2023-05-05T02:35:53.922Z,2.900000095
2023-05-05T02:36:55.357Z,3.299999952
2023-05-05T02:37:56.962Z,3
2023-05-05T02:38:58.104Z,2.799999952
2023-05-05T02:39:58.689Z,2.900000095
2023-05-05T02:41:00.111Z,2.400000095
2023-05-05T02:42:01.483Z,2.799999952
2023-05-05T02:43:02.608Z,2.599999905
2023-05-05T02:44:04.093Z,3.099999905
2023-05-05T02:45:05.104Z,2.799999952
2023-05-05T02:46:06.725Z,2.5
2023-05-05T02:47:08.227Z,3.099999905
2023-05-05T02:48:09.655Z,3
2023-05-05T02:49:10.561Z,2.700000048
2023-05-05T02:50:43.075Z,2.599999905
2023-05-05T02:51:44.748Z,2.900000095
2023-05-05T02:52:46.157Z,2.900000095
2023-05-05T02:53:47.596Z,2.900000095
2023-05-05T02:54:48.226Z,2.799999952
2023-05-05T02:55:49.581Z,3.099999905
2023-05-05T02:56:50.139Z,2.700000048
2023-05-05T02:57:51.599Z,2.599999905
2023-05-05T02:58:52.224Z,2.599999905
2023-05-05T02:59:53.621Z,3.099999905
2023-05-05T03:00:54.908Z,3.099999905
2023-05-05T03:01:56.464Z,3.099999905
2023-05-05T03:02:57.824Z,2.599999905
2023-05-05T03:03:59.167Z,2.400000095
2023-05-05T03:04:59.741Z,3.299999952
2023-05-05T03:06:00.908Z,2.799999952
2023-05-05T03:07:02.378Z,2.700000048
2023-05-05T03:08:03.617Z,2.799999952
2023-05-05T03:09:05.129Z,2.299999952
2023-05-05T03:10:06.035Z,3
2023-05-05T03:11:06.887Z,2.5
2023-05-05T03:12:08.344Z,2.799999952
2023-05-05T03:13:11.220Z,3.200000048
2023-05-05T03:14:41.931Z,2.599999905
2023-05-05T03:15:43.744Z,2.799999952
2023-05-05T03:16:44.918Z,2.799999952
2023-05-05T03:17:46.080Z,2.599999905
2023-05-05T03:18:47.182Z,3.700000048
2023-05-05T03:19:47.661Z,2.700000048
2023-05-05T03:20:49.116Z,2.900000095
2023-05-05T03:21:50.613Z,3.299999952
2023-05-05T03:22:51.610Z,2.599999905
2023-05-05T03:23:53.163Z,2.599999905
2023-05-05T03:24:54.688Z,2.5
2023-05-05T03:25:55.376Z,2.700000048
2023-05-05T03:26:56.880Z,3
2023-05-05T03:27:57.482Z,2.799999952
2023-05-05T03:28:59.625Z,3
2023-05-05T03:30:00.180Z,2.799999952
2023-05-05T03:31:00.651Z,2.799999952
2023-05-05T03:32:02.162Z,2.700000048
2023-05-05T03:33:02.594Z,3
2023-05-05T03:34:03.753Z,2.5
2023-05-05T03:35:04.201Z,3.099999905
2023-05-05T03:36:05.383Z,3.099999905
2023-05-05T03:37:06.861Z,2.700000048
2023-05-05T03:38:08.407Z,3.200000048
2023-05-05T03:39:09.720Z,2.599999905
2023-05-05T03:40:44.506Z,2.900000095
2023-05-05T03:41:42.110Z,2.599999905
2023-05-05T03:42:42.621Z,3
2023-05-05T03:43:43.851Z,3.099999905
2023-05-05T03:44:45.108Z,3
2023-05-05T03:45:46.612Z,2.5
2023-05-05T03:46:47.604Z,2.400000095
2023-05-05T03:47:48.161Z,2.599999905
2023-05-05T03:48:49.390Z,2.700000048
2023-05-05T03:49:50.582Z,3
2023-05-05T03:50:51.772Z,3.200000048
2023-05-05T03:51:53.105Z,2.799999952
2023-05-05T03:52:54.403Z,3
2023-05-05T03:53:55.578Z,3
2023-05-05T03:54:56.681Z,2.799999952
2023-05-05T03:55:57.227Z,2.599999905
2023-05-05T03:56:58.432Z,3.099999905
2023-05-05T03:57:59.850Z,2.400000095
2023-05-05T03:59:00.312Z,2.5
2023-05-05T04:00:01.580Z,3
2023-05-05T04:01:02.183Z,2.700000048
2023-05-05T04:02:04.178Z,2.599999905
2023-05-05T04:03:05.764Z,3.299999952
2023-05-05T04:04:07.139Z,3.099999905
2023-05-05T04:05:08.607Z,2.5
2023-05-05T04:06:09.113Z,3.099999905
2023-05-05T04:07:40.703Z,3.099999905
2023-05-05T04:08:41.926Z,2.900000095
2023-05-05T04:09:43.703Z,2.599999905
2023-05-05T04:10:45.100Z,2.400000095
2023-05-05T04:11:46.694Z,2.700000048
2023-05-05T04:12:47.160Z,2.400000095
2023-05-05T04:13:48.453Z,3.099999905
2023-05-05T04:14:49.863Z,2.900000095
2023-05-05T04:15:51.188Z,3.099999905
2023-05-05T04:16:51.637Z,2.799999952
2023-05-05T04:17:52.973Z,3.099999905
2023-05-05T04:18:53.456Z,3
2023-05-05T04:19:54.674Z,3.200000048
2023-05-05T04:20:56.089Z,3.299999952
2023-05-05T04:21:57.174Z,3
2023-05-05T04:22:57.659Z,3.400000095
2023-05-05T04:23:58.897Z,3
2023-05-05T04:25:00.205Z,3.299999952
2023-05-05T04:26:00.634Z,2.799999952
2023-05-05T04:27:01.092Z,3.099999905
2023-05-05T04:28:01.731Z,2.599999905
2023-05-05T04:29:03.131Z,2.799999952
2023-05-05T04:30:04.609Z,2.700000048
2023-05-05T04:31:05.303Z,2.700000048
2023-05-05T04:32:07.137Z,3.099999905
2023-05-05T04:33:08.654Z,3.200000048
2023-05-05T04:34:40.419Z,3.299999952
2023-05-05T04:35:41.633Z,2.900000095
2023-05-05T04:36:43.114Z,3.599999905
2023-05-05T04:37:43.886Z,3
2023-05-05T04:38:45.556Z,2.5
2023-05-05T04:39:46.885Z,2.799999952
2023-05-05T04:40:48.150Z,2.900000095
2023-05-05T04:41:49.588Z,3.099999905
2023-05-05T04:42:50.869Z,2.900000095
2023-05-05T04:43:52.167Z,3.299999952
2023-05-05T04:44:53.609Z,3.200000048
2023-05-05T04:45:55.267Z,2.799999952
2023-05-05T04:46:55.845Z,2.599999905
2023-05-05T04:47:57.008Z,2.900000095
2023-05-05T04:48:57.930Z,2.900000095
2023-05-05T04:49:59.138Z,2.900000095
2023-05-05T04:50:59.735Z,2.700000048
2023-05-05T04:52:01.113Z,3
2023-05-05T04:53:02.494Z,2.799999952
2023-05-05T04:54:03.923Z,2.900000095
2023-05-05T04:55:05.163Z,2.900000095
2023-05-05T04:56:06.613Z,2.700000048
2023-05-05T04:57:07.099Z,2.400000095
2023-05-05T04:58:08.462Z,2.900000095
2023-05-05T04:59:39.790Z,3
2023-05-05T05:00:40.997Z,3.299999952
2023-05-05T05:01:42.196Z,3.299999952
2023-05-05T05:02:43.759Z,2.400000095
2023-05-05T05:03:44.278Z,3
2023-05-05T05:04:45.342Z,3.099999905
2023-05-05T05:05:46.393Z,3.099999905
2023-05-05T05:06:47.613Z,3.200000048
2023-05-05T05:07:48.140Z,3
2023-05-05T05:08:49.357Z,3
2023-05-05T05:09:50.347Z,2.900000095
2023-05-05T05:10:51.394Z,2.900000095
2023-05-05T05:11:52.941Z,2.700000048
2023-05-05T05:12:54.509Z,2.900000095
2023-05-05T05:13:55.647Z,2.599999905
2023-05-05T05:14:56.258Z,3.200000048
2023-05-05T05:15:58.196Z,3.599999905
2023-05-05T05:16:58.670Z,3.200000048
2023-05-05T05:17:59.951Z,2.599999905
2023-05-05T05:19:01.792Z,2.900000095
2023-05-05T05:20:02.388Z,3.299999952
2023-05-05T05:21:03.670Z,3.099999905
2023-05-05T05:22:05.135Z,2.700000048
2023-05-05T05:23:05.687Z,3.200000048
2023-05-05T05:24:06.946Z,2.900000095
2023-05-05T05:25:08.106Z,2.799999952
2023-05-05T05:26:39.942Z,2.799999952
2023-05-05T05:27:41.118Z,2.700000048
2023-05-05T05:28:42.626Z,3.299999952
2023-05-05T05:29:43.081Z,2.900000095
2023-05-05T05:30:44.360Z,3.099999905
2023-05-05T05:31:45.368Z,2.599999905
2023-05-05T05:32:46.554Z,3.299999952
2023-05-05T05:33:47.965Z,3.400000095
2023-05-05T05:34:49.448Z,3.299999952
2023-05-05T05:35:50.372Z,3.200000048
2023-05-05T05:36:51.606Z,3.099999905
2023-05-05T05:37:53.136Z,2.799999952
2023-05-05T05:38:53.622Z,3
2023-05-05T05:39:54.931Z,3.5
2023-05-05T05:40:56.463Z,4.300000191
2023-05-05T05:41:57.860Z,3
2023-05-05T05:42:59.651Z,3.099999905
2023-05-05T05:44:00.171Z,3.099999905
2023-05-05T05:45:01.413Z,2.900000095
2023-05-05T05:46:02.675Z,3.099999905
2023-05-05T05:47:03.660Z,3
2023-05-05T05:48:04.178Z,2.900000095
2023-05-05T05:49:05.376Z,2.5
2023-05-05T05:50:06.068Z,2.799999952
2023-05-05T05:51:07.108Z,3.599999905
2023-05-05T05:52:07.620Z,2.700000048
2023-05-05T05:53:39.218Z,2.900000095
2023-05-05T05:54:40.400Z,3.200000048
2023-05-05T05:55:41.916Z,2.900000095
2023-05-05T05:56:42.841Z,3.200000048
2023-05-05T05:57:44.100Z,2.799999952
2023-05-05T05:58:45.637Z,2.900000095
2023-05-05T05:59:46.295Z,3
2023-05-05T06:00:47.481Z,2.799999952
2023-05-05T06:01:48.921Z,2.799999952
2023-05-05T06:02:50.193Z,3.200000048
2023-05-05T06:03:51.521Z,3.099999905
2023-05-05T06:04:52.991Z,2.700000048
2023-05-05T06:05:54.290Z,3
2023-05-05T06:06:55.622Z,2.700000048
2023-05-05T06:07:56.635Z,2.599999905
2023-05-05T06:08:57.097Z,2.400000095
2023-05-05T06:09:59.282Z,2.799999952
2023-05-05T06:10:59.003Z,2.5
2023-05-05T06:12:00.313Z,3
2023-05-05T06:13:01.664Z,2.900000095
2023-05-05T06:14:02.419Z,2.599999905
2023-05-05T06:15:03.951Z,2.900000095
2023-05-05T06:16:05.526Z,3
2023-05-05T06:17:06.766Z,2.599999905
2023-05-05T06:18:08.149Z,2.400000095
2023-05-05T06:19:38.886Z,2.400000095
2023-05-05T06:20:40.438Z,2.900000095
2023-05-05T06:21:42.158Z,3.099999905
2023-05-05T06:22:43.716Z,3
2023-05-05T06:23:44.908Z,2.200000048
2023-05-05T06:24:46.332Z,2.799999952
2023-05-05T06:25:47.418Z,2.599999905
2023-05-05T06:26:49.000Z,3
2023-05-05T06:27:50.118Z,2.599999905
2023-05-05T06:28:51.109Z,2.700000048
2023-05-05T06:29:51.562Z,3.099999905
2023-05-05T06:30:52.895Z,3
2023-05-05T06:31:54.455Z,2.700000048
2023-05-05T06:32:56.705Z,2.599999905
2023-05-05T06:33:57.221Z,2.700000048
2023-05-05T06:34:58.465Z,2.799999952
2023-05-05T06:35:59.877Z,2.799999952
2023-05-05T06:37:01.240Z,3
2023-05-05T06:38:02.619Z,3.299999952
2023-05-05T06:39:03.131Z,2.200000048
2023-05-05T06:40:03.616Z,2.799999952
2023-05-05T06:41:04.906Z,2.799999952
2023-05-05T06:42:07.188Z,3.200000048
2023-05-05T06:43:38.914Z,2.5
2023-05-05T06:44:40.118Z,2.799999952
2023-05-05T06:45:43.622Z,2.799999952
2023-05-05T06:46:41.683Z,2.400000095
2023-05-05T06:47:43.065Z,2.799999952
2023-05-05T06:48:44.796Z,2.700000048
2023-05-05T06:49:46.130Z,2.299999952
2023-05-05T06:50:47.114Z,2.200000048
2023-05-05T06:51:47.570Z,2.700000048
2023-05-05T06:52:48.973Z,2.900000095
2023-05-05T06:53:50.596Z,2.799999952
2023-05-05T06:54:52.137Z,2.200000048
2023-05-05T06:55:53.130Z,2.799999952
2023-05-05T06:56:54.121Z,2.700000048
2023-05-05T06:57:55.425Z,2.799999952
2023-05-05T06:58:56.659Z,2.700000048
2023-05-05T06:59:57.525Z,2.299999952
2023-05-05T07:00:58.903Z,2.299999952
2023-05-05T07:01:59.877Z,2.400000095
2023-05-05T07:03:01.405Z,2.900000095
2023-05-05T07:04:02.826Z,2.400000095
2023-05-05T07:05:03.274Z,2.700000048
2023-05-05T07:06:04.633Z,2.400000095
2023-05-05T07:07:06.145Z,2.900000095
2023-05-05T07:08:06.593Z,2.400000095
2023-05-05T07:09:38.893Z,2.700000048
2023-05-05T07:10:40.226Z,2.5
2023-05-05T07:11:40.766Z,2.299999952
2023-05-05T07:12:41.859Z,2.5
2023-05-05T07:13:43.013Z,2.700000048
2023-05-05T07:14:44.685Z,2.700000048
2023-05-05T07:15:46.207Z,2.299999952
2023-05-05T07:16:46.797Z,2.900000095
2023-05-05T07:17:48.051Z,3.099999905
2023-05-05T07:18:48.614Z,2.400000095
2023-05-05T07:19:49.642Z,2.400000095
2023-05-05T07:20:50.204Z,2.5
2023-05-05T07:21:51.403Z,2.799999952
2023-05-05T07:22:52.619Z,2.5
2023-05-05T07:23:53.947Z,3.200000048
2023-05-05T07:24:55.257Z,2.5
2023-05-05T07:25:56.640Z,2.299999952
2023-05-05T07:26:57.179Z,2.700000048
2023-05-05T07:27:58.353Z,2.200000048
2023-05-05T07:28:59.741Z,2.400000095
2023-05-05T07:30:00.722Z,2.400000095
2023-05-05T07:31:01.302Z,2.299999952
2023-05-05T07:32:02.489Z,2.400000095
2023-05-05T07:33:03.660Z,2.400000095
2023-05-05T07:34:04.655Z,2
2023-05-05T07:35:05.644Z,2.799999952
2023-05-05T07:36:07.136Z,2.099999905
2023-05-05T07:37:38.063Z,2.400000095
2023-05-05T07:38:39.398Z,1.799999952
2023-05-05T07:39:40.686Z,1.600000024
2023-05-05T07:40:42.304Z,1.799999952
2023-05-05T07:41:43.661Z,2
2023-05-05T07:42:44.179Z,2.200000048
2023-05-05T07:43:45.365Z,2.400000095
2023-05-05T07:44:46.883Z,2.200000048
2023-05-05T07:45:48.186Z,2.099999905
2023-05-05T07:46:48.695Z,1.899999976
2023-05-05T07:47:50.076Z,2.099999905
2023-05-05T07:48:51.425Z,1.899999976
2023-05-05T07:49:52.651Z,1.799999952
2023-05-05T07:50:55.247Z,1.799999952
2023-05-05T07:51:55.712Z,2.200000048
2023-05-05T07:53:06.246Z,1.5
2023-05-05T07:53:58.454Z,2.299999952
2023-05-05T07:54:58.934Z,1.799999952
2023-05-05T07:56:00.096Z,1.799999952
2023-05-05T07:57:01.426Z,1.600000024
2023-05-05T07:58:02.911Z,2.099999905
2023-05-05T07:59:05.143Z,1.399999976
2023-05-05T08:00:05.665Z,1.399999976
2023-05-05T08:01:06.767Z,2.200000048
2023-05-05T08:02:38.732Z,1.899999976
2023-05-05T08:03:40.240Z,2.299999952
2023-05-05T08:04:41.588Z,1.899999976
2023-05-05T08:05:42.624Z,1.700000048
2023-05-05T08:06:44.312Z,2.299999952
2023-05-05T08:07:44.904Z,1.399999976
2023-05-05T08:08:45.606Z,2.099999905
2023-05-05T08:09:47.070Z,1.700000048
2023-05-05T08:10:48.172Z,1.899999976
2023-05-05T08:11:49.646Z,3.099999905
2023-05-05T08:12:50.340Z,2.799999952
2023-05-05T08:13:51.494Z,1.899999976
2023-05-05T08:14:53.031Z,1.5
2023-05-05T08:15:54.693Z,1.700000048
2023-05-05T08:16:55.440Z,1.799999952
2023-05-05T08:17:56.523Z,1.299999952
2023-05-05T08:18:57.952Z,1.700000048
2023-05-05T08:19:59.418Z,1.399999976
2023-05-05T08:21:01.657Z,1.5
2023-05-05T08:22:02.220Z,1.5
2023-05-05T08:23:02.618Z,1.299999952
2023-05-05T08:24:03.097Z,1.399999976
2023-05-05T08:25:03.590Z,1.399999976
2023-05-05T08:26:05.630Z,1.399999976
2023-05-05T08:27:06.582Z,1.5
2023-05-05T08:28:37.979Z,1.299999952
2023-05-05T08:29:39.434Z,1.600000024
2023-05-05T08:30:40.931Z,1.100000024
2023-05-05T08:31:42.507Z,1.299999952
2023-05-05T08:32:43.681Z,1.299999952
2023-05-05T08:33:44.236Z,1.399999976
2023-05-05T08:34:45.404Z,1.600000024
2023-05-05T08:35:46.439Z,1.399999976
2023-05-05T08:36:47.633Z,1.399999976
2023-05-05T08:37:48.972Z,1.399999976
2023-05-05T08:38:50.232Z,1.5
2023-05-05T08:39:51.449Z,1.5
2023-05-05T08:40:52.063Z,1.299999952
2023-05-05T08:41:52.541Z,1.700000048
2023-05-05T08:42:53.911Z,1.700000048
2023-05-05T08:43:55.098Z,2
2023-05-05T08:44:58.330Z,1.799999952
2023-05-05T08:45:57.661Z,1.5
2023-05-05T08:46:59.212Z,1.5
2023-05-05T08:47:59.766Z,2
2023-05-05T08:49:01.186Z,1.700000048
2023-05-05T08:50:02.712Z,1.700000048
2023-05-05T08:51:05.687Z,1.700000048
2023-05-05T08:52:05.671Z,2.099999905
2023-05-05T08:53:37.421Z,1.600000024
2023-05-05T08:54:38.469Z,1.600000024
2023-05-05T08:55:39.991Z,1.799999952
2023-05-05T08:56:41.464Z,1.700000048
2023-05-05T08:57:42.685Z,1.799999952
2023-05-05T08:58:44.194Z,1.700000048
2023-05-05T08:59:44.771Z,1.799999952
2023-05-05T09:00:45.990Z,1.5
2023-05-05T09:01:47.427Z,1.700000048
2023-05-05T09:02:49.700Z,1.600000024
2023-05-05T09:03:51.017Z,2
2023-05-05T09:04:52.371Z,2.400000095
2023-05-05T09:05:53.497Z,2
2023-05-05T09:06:54.692Z,1.899999976
2023-05-05T09:07:56.187Z,1.600000024
2023-05-05T09:08:59.013Z,1.899999976
2023-05-05T09:09:58.679Z,1.799999952
2023-05-05T09:11:00.174Z,1.600000024
2023-05-05T09:12:01.657Z,1.799999952
2023-05-05T09:13:03.221Z,1.899999976
2023-05-05T09:14:03.825Z,2.200000048
2023-05-05T09:15:05.038Z,2.200000048
2023-05-05T09:16:37.514Z,2.099999905
2023-05-05T09:17:39.023Z,2.299999952
2023-05-05T09:18:40.522Z,2.900000095
2023-05-05T09:19:42.199Z,3.599999905
2023-05-05T09:20:43.749Z,2.099999905
2023-05-05T09:21:45.047Z,1.600000024
2023-05-05T09:22:45.706Z,2.099999905
2023-05-05T09:23:47.266Z,2.299999952
2023-05-05T09:24:48.533Z,2.099999905
2023-05-05T09:25:49.947Z,2.5
2023-05-05T09:26:51.620Z,2.099999905
2023-05-05T09:27:52.935Z,2
2023-05-05T09:28:54.576Z,1.899999976
2023-05-05T09:29:55.968Z,1.799999952
2023-05-05T09:30:57.102Z,1.799999952
2023-05-05T09:31:58.489Z,1.700000048
2023-05-05T09:32:59.975Z,2
2023-05-05T09:34:02.156Z,2.099999905
2023-05-05T09:35:03.899Z,2.099999905
2023-05-05T09:36:04.298Z,2.400000095
2023-05-05T09:37:05.702Z,2.099999905
2023-05-05T09:38:37.531Z,1.700000048
2023-05-05T09:39:38.943Z,2.099999905
2023-05-05T09:40:40.482Z,2.200000048
2023-05-05T09:41:41.933Z,2.200000048
2023-05-05T09:42:44.487Z,1.799999952
2023-05-05T09:43:45.920Z,1.700000048
2023-05-05T09:44:47.432Z,2.099999905
2023-05-05T09:45:49.049Z,1.899999976
2023-05-05T09:46:50.216Z,2.400000095
2023-05-05T09:47:50.722Z,1.799999952
2023-05-05T09:48:51.979Z,2
2023-05-05T09:49:53.500Z,2
2023-05-05T09:50:55.031Z,1.899999976
2023-05-05T09:51:56.867Z,2
2023-05-05T09:52:58.285Z,1.799999952
2023-05-05T09:53:59.076Z,1.899999976
2023-05-05T09:54:59.639Z,1.700000048
2023-05-05T09:56:01.263Z,1.799999952
2023-05-05T09:57:01.686Z,1.700000048
2023-05-05T09:58:03.639Z,2
2023-05-05T09:59:05.763Z,1.700000048
2023-05-05T10:00:38.689Z,1.899999976
2023-05-05T10:01:40.797Z,1.799999952
2023-05-05T10:02:42.251Z,1.600000024
2023-05-05T10:03:43.749Z,1.799999952
2023-05-05T10:04:45.249Z,2.099999905
2023-05-05T10:05:46.682Z,2.099999905
2023-05-05T10:06:48.020Z,1.399999976
2023-05-05T10:07:49.176Z,1.799999952
2023-05-05T10:08:49.829Z,2.5
2023-05-05T10:09:50.986Z,2.400000095
2023-05-05T10:10:52.518Z,2.299999952
2023-05-05T10:11:54.479Z,3
2023-05-05T10:12:55.820Z,2.599999905
2023-05-05T10:13:56.392Z,2.099999905
2023-05-05T10:14:58.191Z,2.799999952
2023-05-05T10:15:59.717Z,2.299999952
2023-05-05T10:17:01.274Z,2.200000048
2023-05-05T10:18:08.276Z,1.799999952
2023-05-05T10:19:03.262Z,2.5
2023-05-05T10:20:04.594Z,1.899999976
2023-05-05T10:21:37.024Z,2.599999905
2023-05-05T10:22:38.799Z,2.599999905
2023-05-05T10:23:39.677Z,2.400000095
2023-05-05T10:24:41.222Z,2
2023-05-05T10:25:41.797Z,1.899999976
2023-05-05T10:26:43.019Z,1.899999976
2023-05-05T10:27:44.637Z,1.899999976
2023-05-05T10:28:45.681Z,1.799999952
2023-05-05T10:29:47.231Z,2
2023-05-05T10:30:47.811Z,2
2023-05-05T10:31:48.943Z,2
2023-05-05T10:32:54.349Z,2.400000095
2023-05-05T10:33:51.465Z,1.600000024
2023-05-05T10:34:52.493Z,1.700000048
2023-05-05T10:35:54.218Z,2.299999952
2023-05-05T10:36:55.621Z,2.200000048
2023-05-05T10:37:56.728Z,2.400000095
2023-05-05T10:38:58.170Z,2.200000048
2023-05-05T10:39:58.687Z,2.099999905
2023-05-05T10:41:00.095Z,2.099999905
2023-05-05T10:42:01.562Z,1.799999952
2023-05-05T10:43:03.735Z,2.099999905
2023-05-05T10:44:04.774Z,2.299999952
2023-05-05T10:45:36.866Z,1.799999952
2023-05-05T10:46:38.700Z,2
2023-05-05T10:47:40.033Z,1.899999976
2023-05-05T10:48:41.599Z,1.899999976
2023-05-05T10:49:42.706Z,2
2023-05-05T10:50:44.176Z,1.899999976
2023-05-05T10:51:44.853Z,2.200000048
2023-05-05T10:52:45.980Z,1.799999952
2023-05-05T10:53:47.604Z,1.700000048
2023-05-05T10:54:48.699Z,1.899999976
2023-05-05T10:55:49.690Z,1.799999952
2023-05-05T10:56:51.244Z,2.5
2023-05-05T10:57:52.686Z,2.700000048
2023-05-05T10:58:59.672Z,3.200000048
2023-05-05T10:59:55.846Z,3.5
2023-05-05T11:00:56.408Z,1.899999976
2023-05-05T11:01:57.501Z,3
2023-05-05T11:02:59.172Z,2.700000048
2023-05-05T11:04:00.223Z,2
2023-05-05T11:05:01.822Z,2
2023-05-05T11:06:02.384Z,2.5
2023-05-05T11:07:03.481Z,2.599999905
2023-05-05T11:08:35.376Z,2.400000095
2023-05-05T11:09:36.578Z,1.899999976
2023-05-05T11:10:37.937Z,1.899999976
2023-05-05T11:11:39.663Z,1.799999952
2023-05-05T11:12:41.028Z,1.899999976
2023-05-05T11:13:42.485Z,1.799999952
2023-05-05T11:14:44.007Z,2.200000048
2023-05-05T11:15:45.428Z,1.799999952
2023-05-05T11:16:46.462Z,2.299999952
2023-05-05T11:17:48.044Z,3.900000095
2023-05-05T11:18:49.502Z,2.700000048
2023-05-05T11:19:51.067Z,2
2023-05-05T11:20:52.229Z,2.900000095
2023-05-05T11:21:52.803Z,2.700000048
2023-05-05T11:22:53.936Z,2.400000095
2023-05-05T11:23:55.416Z,3.200000048
2023-05-05T11:24:56.730Z,2.700000048
2023-05-05T11:25:58.187Z,3.5
2023-05-05T11:26:58.728Z,4
2023-05-05T11:27:59.934Z,4
2023-05-05T11:29:01.776Z,3.700000048
2023-05-05T11:30:02.301Z,4.099999905
2023-05-05T11:31:03.704Z,2.599999905
2023-05-05T11:32:35.565Z,1.700000048
2023-05-05T11:33:36.985Z,1.799999952
2023-05-05T11:34:38.532Z,1.799999952
2023-05-05T11:35:39.931Z,1.799999952
2023-05-05T11:36:41.183Z,2
2023-05-05T11:37:42.223Z,1.799999952
2023-05-05T11:38:42.840Z,3.400000095
2023-05-05T11:39:43.972Z,2.200000048
2023-05-05T11:40:45.480Z,2
2023-05-05T11:41:46.945Z,1.899999976
2023-05-05T11:42:48.698Z,2.200000048
2023-05-05T11:43:49.956Z,1.799999952
2023-05-05T11:44:51.088Z,2.099999905
2023-05-05T11:45:52.533Z,1.799999952
2023-05-05T11:46:54.402Z,1.700000048